createdAt,value
2019-04-16T00:00:19.760Z,8.87
2019-04-16T00:01:19.740Z,8.87
2019-04-16T00:02:19.740Z,8.87
2019-04-16T00:03:20.344Z,8.84
2019-04-16T00:04:22.284Z,8.79
2019-04-16T00:05:20.721Z,8.72
2019-04-16T00:06:19.979Z,8.63
2019-04-16T00:07:20.388Z,8.58
2019-04-16T00:08:27.624Z,8.53
2019-04-16T00:09:20.719Z,8.44
2019-04-16T00:10:19.662Z,8.39
2019-04-16T00:11:19.639Z,8.36
2019-04-16T00:12:19.626Z,8.32
2019-04-16T00:13:19.628Z,8.33
2019-04-16T00:14:19.618Z,8.32
2019-04-16T00:15:19.651Z,8.32
2019-04-16T00:16:19.598Z,8.30
2019-04-16T00:17:19.611Z,8.30
2019-04-16T00:18:19.879Z,8.33
2019-04-16T00:19:19.567Z,8.35
2019-04-16T00:20:19.548Z,8.33
2019-04-16T00:21:19.574Z,8.32
2019-04-16T00:22:19.545Z,8.22
2019-04-16T00:23:19.526Z,8.14
2019-04-16T00:24:19.631Z,8.08
2019-04-16T00:25:19.786Z,8.04
2019-04-16T00:26:19.489Z,8.04
2019-04-16T00:27:19.527Z,8.04
2019-04-16T00:28:19.477Z,8.04
2019-04-16T00:29:19.455Z,8.07
2019-04-16T00:30:19.448Z,8.08
2019-04-16T00:31:19.427Z,8.08
2019-04-16T00:32:19.719Z,8.08
2019-04-16T00:33:19.446Z,8.08
2019-04-16T00:34:19.396Z,8.10
2019-04-16T00:35:19.397Z,8.11
2019-04-16T00:36:19.383Z,8.11
2019-04-16T00:37:21.296Z,8.11
2019-04-16T00:38:22.490Z,8.11
2019-04-16T00:39:24.429Z,8.10
2019-04-16T00:40:20.348Z,8.07
2019-04-16T00:41:19.335Z,8.07
2019-04-16T00:42:20.228Z,8.11
2019-04-16T00:43:19.307Z,8.10
2019-04-16T00:44:19.305Z,8.15
2019-04-16T00:45:19.381Z,8.18
2019-04-16T00:46:19.306Z,8.20
2019-04-16T00:47:19.271Z,8.25
2019-04-16T00:48:19.271Z,8.29
2019-04-16T00:49:19.244Z,8.30
2019-04-16T00:50:19.246Z,8.33
2019-04-16T00:51:19.264Z,8.35
2019-04-16T00:52:19.484Z,8.36
2019-04-16T00:53:19.194Z,8.39
2019-04-16T00:54:19.209Z,8.42
2019-04-16T00:55:19.194Z,8.44
2019-04-16T00:56:19.175Z,8.47
2019-04-16T00:57:19.200Z,8.48
2019-04-16T00:58:19.835Z,8.50
2019-04-16T00:59:21.388Z,8.50
2019-04-16T01:00:20.064Z,8.50
2019-04-16T01:01:19.253Z,8.51
2019-04-16T01:02:19.139Z,8.53
2019-04-16T01:03:19.244Z,8.53
2019-04-16T01:04:19.084Z,8.53
2019-04-16T01:05:19.066Z,8.53
2019-04-16T01:06:19.342Z,8.54
2019-04-16T01:07:19.083Z,8.53
2019-04-16T01:08:19.036Z,8.51
2019-04-16T01:09:19.053Z,8.50
2019-04-16T01:10:19.012Z,8.45
2019-04-16T01:11:19.011Z,8.39
2019-04-16T01:12:19.006Z,8.39
2019-04-16T01:13:21.689Z,8.39
2019-04-16T01:14:20.008Z,8.37
2019-04-16T01:15:18.962Z,8.35
2019-04-16T01:16:18.956Z,8.36
2019-04-16T01:17:18.941Z,8.33
2019-04-16T01:18:18.930Z,8.32
2019-04-16T01:19:18.917Z,8.29
2019-04-16T01:20:19.241Z,8.28
2019-04-16T01:21:18.901Z,8.28
2019-04-16T01:22:18.881Z,8.29
2019-04-16T01:23:18.883Z,8.26
2019-04-16T01:24:20.209Z,8.26
2019-04-16T01:25:20.249Z,8.25
2019-04-16T01:26:18.874Z,8.22
2019-04-16T01:27:19.111Z,8.21
2019-04-16T01:28:18.820Z,8.20
2019-04-16T01:29:18.799Z,8.20
2019-04-16T01:30:18.810Z,8.15
2019-04-16T01:31:18.791Z,8.14
2019-04-16T01:32:18.837Z,8.12
2019-04-16T01:33:18.759Z,8.12
2019-04-16T01:34:19.040Z,8.10
2019-04-16T01:35:19.720Z,8.10
2019-04-16T01:36:20.339Z,8.12
2019-04-16T01:37:18.719Z,8.11
2019-04-16T01:38:18.764Z,8.10
2019-04-16T01:39:18.710Z,8.08
2019-04-16T01:40:19.311Z,8.04
2019-04-16T01:41:21.752Z,8.03
2019-04-16T01:42:23.141Z,8.02
2019-04-16T01:43:18.667Z,8.02
2019-04-16T01:44:18.672Z,7.99
2019-04-16T01:45:18.628Z,7.94
2019-04-16T01:46:18.627Z,7.89
2019-04-16T01:47:18.608Z,7.89
2019-04-16T01:48:18.890Z,7.87
2019-04-16T01:49:18.590Z,7.87
2019-04-16T01:50:18.618Z,7.82
2019-04-16T01:51:18.565Z,7.79
2019-04-16T01:52:19.563Z,7.74
2019-04-16T01:53:21.134Z,7.72
2019-04-16T01:54:22.627Z,7.71
2019-04-16T01:55:18.808Z,7.69
2019-04-16T01:56:18.717Z,7.67
2019-04-16T01:57:18.519Z,7.62
2019-04-16T01:58:18.497Z,7.59
2019-04-16T01:59:18.494Z,7.55
2019-04-16T02:01:49.466Z,7.45
2019-04-16T02:02:49.850Z,7.40
2019-04-16T02:03:49.897Z,7.34
2019-04-16T02:04:51.950Z,7.27
2019-04-16T02:05:49.074Z,7.26
2019-04-16T02:06:49.100Z,7.29
2019-04-16T02:07:49.518Z,7.24
2019-04-16T02:08:49.068Z,7.24
2019-04-16T02:09:49.192Z,7.27
2019-04-16T02:10:49.058Z,7.27
2019-04-16T02:11:49.043Z,7.23
2019-04-16T02:12:49.031Z,7.20
2019-04-16T02:13:49.395Z,7.23
2019-04-16T02:14:50.452Z,7.22
2019-04-16T02:15:50.633Z,7.19
2019-04-16T02:16:48.971Z,7.19
2019-04-16T02:17:48.952Z,7.19
2019-04-16T02:18:48.946Z,7.16
2019-04-16T02:19:49.262Z,7.17
2019-04-16T02:20:48.922Z,7.15
2019-04-16T02:21:48.922Z,7.16
2019-04-16T02:22:49.669Z,7.16
2019-04-16T02:23:48.893Z,7.16
2019-04-16T02:24:48.918Z,7.12
2019-04-16T02:25:51.358Z,7.05
2019-04-16T02:26:49.151Z,7.02
2019-04-16T02:27:48.850Z,6.99
2019-04-16T02:28:48.841Z,6.99
2019-04-16T02:29:48.828Z,6.97
2019-04-16T02:30:48.827Z,6.95
2019-04-16T02:31:51.478Z,6.94
2019-04-16T02:32:48.800Z,6.91
2019-04-16T02:33:49.085Z,6.94
2019-04-16T02:34:48.781Z,6.95
2019-04-16T02:35:48.769Z,6.91
2019-04-16T02:36:48.765Z,6.94
2019-04-16T02:37:48.770Z,6.91
2019-04-16T02:38:53.303Z,6.95
2019-04-16T02:39:49.863Z,6.95
2019-04-16T02:40:52.961Z,6.91
2019-04-16T02:41:48.701Z,6.90
2019-04-16T02:42:48.726Z,6.84
2019-04-16T02:43:48.728Z,6.81
2019-04-16T02:44:50.157Z,6.81
2019-04-16T02:45:48.666Z,6.80
2019-04-16T02:46:48.948Z,6.80
2019-04-16T02:47:48.657Z,6.76
2019-04-16T02:48:51.351Z,6.73
2019-04-16T02:49:48.699Z,6.73
2019-04-16T02:50:48.608Z,6.71
2019-04-16T02:51:48.609Z,6.72
2019-04-16T02:52:51.140Z,6.73
2019-04-16T02:53:48.851Z,6.69
2019-04-16T02:54:48.571Z,6.65
2019-04-16T02:55:48.577Z,6.63
2019-04-16T02:56:52.141Z,6.62
2019-04-16T02:57:48.532Z,6.61
2019-04-16T02:58:48.536Z,6.62
2019-04-16T02:59:48.527Z,6.61
2019-04-16T03:00:50.487Z,6.56
2019-04-16T03:01:49.417Z,6.56
2019-04-16T03:02:48.477Z,6.59
2019-04-16T03:03:48.466Z,6.54
2019-04-16T03:04:48.462Z,6.53
2019-04-16T03:05:48.456Z,6.50
2019-04-16T03:06:48.435Z,6.46
2019-04-16T03:07:48.792Z,6.40
2019-04-16T03:08:48.417Z,6.44
2019-04-16T03:10:00.622Z,6.43
2019-04-16T03:10:49.397Z,6.41
2019-04-16T03:11:49.263Z,6.41
2019-04-16T03:12:51.903Z,6.41
2019-04-16T03:13:48.386Z,6.38
2019-04-16T03:14:48.668Z,6.40
2019-04-16T03:15:48.345Z,6.40
2019-04-16T03:16:48.331Z,6.41
2019-04-16T03:17:48.321Z,6.36
2019-04-16T03:18:48.444Z,6.33
2019-04-16T03:19:51.444Z,6.33
2019-04-16T03:20:48.809Z,6.33
2019-04-16T03:21:49.103Z,6.36
2019-04-16T03:22:48.268Z,6.36
2019-04-16T03:23:48.253Z,6.41
2019-04-16T03:24:48.253Z,6.44
2019-04-16T03:25:48.323Z,6.43
2019-04-16T03:26:50.515Z,6.47
2019-04-16T03:27:48.241Z,6.41
2019-04-16T03:28:48.507Z,6.36
2019-04-16T03:29:48.203Z,6.36
2019-04-16T03:30:48.192Z,6.40
2019-04-16T03:31:48.302Z,6.40
2019-04-16T03:32:48.170Z,6.38
2019-04-16T03:33:50.869Z,6.33
2019-04-16T03:34:50.503Z,6.30
2019-04-16T03:35:49.442Z,6.28
2019-04-16T03:36:48.122Z,6.28
2019-04-16T03:37:48.162Z,6.33
2019-04-16T03:38:48.105Z,6.33
2019-04-16T03:39:48.091Z,6.32
2019-04-16T03:40:48.081Z,6.29
2019-04-16T03:41:48.071Z,6.28
2019-04-16T03:42:48.354Z,6.26
2019-04-16T03:43:48.113Z,6.21
2019-04-16T03:44:48.039Z,6.21
2019-04-16T03:45:48.030Z,6.18
2019-04-16T03:46:48.024Z,6.16
2019-04-16T03:47:50.888Z,6.16
2019-04-16T03:48:48.000Z,6.19
2019-04-16T03:49:48.340Z,6.19
2019-04-16T03:50:48.820Z,6.22
2019-04-16T03:51:47.979Z,6.21
2019-04-16T03:52:47.967Z,6.19
2019-04-16T03:53:49.581Z,6.16
2019-04-16T03:54:48.250Z,6.19
2019-04-16T03:55:47.965Z,6.19
2019-04-16T03:56:48.209Z,6.22
2019-04-16T03:57:47.922Z,6.21
2019-04-16T03:58:47.889Z,6.18
2019-04-16T03:59:47.888Z,6.21
2019-04-16T04:00:47.880Z,6.25
2019-04-16T04:01:48.138Z,6.22
2019-04-16T04:02:47.868Z,6.19
2019-04-16T04:03:48.141Z,6.14
2019-04-16T04:04:47.848Z,6.16
2019-04-16T04:05:47.822Z,6.13
2019-04-16T04:06:47.817Z,6.13
2019-04-16T04:07:47.847Z,6.13
2019-04-16T04:08:48.958Z,6.13
2019-04-16T04:09:47.777Z,6.13
2019-04-16T04:10:48.057Z,6.14
2019-04-16T04:11:47.759Z,6.13
2019-04-16T04:12:47.766Z,6.18
2019-04-16T04:13:50.051Z,6.14
2019-04-16T04:14:47.752Z,6.18
2019-04-16T04:15:47.756Z,6.18
2019-04-16T04:16:48.055Z,6.18
2019-04-16T04:17:48.516Z,6.18
2019-04-16T04:18:47.687Z,6.19
2019-04-16T04:19:47.746Z,6.21
2019-04-16T04:20:50.519Z,6.19
2019-04-16T04:21:50.646Z,6.22
2019-04-16T04:22:48.675Z,6.28
2019-04-16T04:23:47.949Z,6.29
2019-04-16T04:24:47.625Z,6.26
2019-04-16T04:25:47.858Z,6.21
2019-04-16T04:26:47.615Z,6.21
2019-04-16T04:27:47.848Z,6.14
2019-04-16T04:28:48.594Z,6.09
2019-04-16T04:29:47.587Z,6.09
2019-04-16T04:30:48.890Z,6.09
2019-04-16T04:31:47.597Z,6.09
2019-04-16T04:32:47.885Z,6.10
2019-04-16T04:33:47.542Z,6.10
2019-04-16T04:34:48.749Z,6.07
2019-04-16T04:35:47.523Z,6.09
2019-04-16T04:36:47.523Z,6.06
2019-04-16T04:37:47.873Z,6.06
2019-04-16T04:38:47.486Z,6.03
2019-04-16T04:39:47.477Z,6.06
2019-04-16T04:40:50.488Z,6.04
2019-04-16T04:41:47.443Z,6.03
2019-04-16T04:42:47.434Z,6.01
2019-04-16T04:43:47.471Z,6.03
2019-04-16T04:44:47.423Z,6.06
2019-04-16T04:45:47.410Z,6.03
2019-04-16T04:46:47.402Z,6.06
2019-04-16T04:47:51.384Z,6.07
2019-04-16T04:48:47.374Z,6.07
2019-04-16T04:49:47.402Z,6.07
2019-04-16T04:50:48.201Z,6.07
2019-04-16T04:51:47.341Z,6.06
2019-04-16T04:52:47.332Z,5.96
2019-04-16T04:53:47.462Z,5.96
2019-04-16T04:54:47.309Z,6.00
2019-04-16T04:55:47.591Z,5.98
2019-04-16T04:56:47.290Z,6.01
2019-04-16T04:57:47.278Z,6.01
2019-04-16T04:58:47.270Z,6.06
2019-04-16T04:59:47.259Z,6.07
2019-04-16T05:00:47.241Z,6.10
2019-04-16T05:01:47.290Z,6.13
2019-04-16T05:02:47.234Z,6.16
2019-04-16T05:03:48.170Z,6.13
2019-04-16T05:04:49.613Z,6.11
2019-04-16T05:05:48.190Z,6.11
2019-04-16T05:06:47.181Z,6.14
2019-04-16T05:07:47.219Z,6.18
2019-04-16T05:08:47.449Z,6.18
2019-04-16T05:09:47.168Z,6.22
2019-04-16T05:10:58.443Z,6.22
2019-04-16T05:11:49.457Z,6.26
2019-04-16T05:12:47.129Z,6.26
2019-04-16T05:13:47.167Z,6.28
2019-04-16T05:14:47.119Z,6.33
2019-04-16T05:15:47.423Z,6.33
2019-04-16T05:16:47.180Z,6.29
2019-04-16T05:17:47.078Z,6.29
2019-04-16T05:18:47.095Z,6.30
2019-04-16T05:19:47.086Z,6.33
2019-04-16T05:20:47.685Z,6.35
2019-04-16T05:21:49.621Z,6.35
2019-04-16T05:22:47.351Z,6.30
2019-04-16T05:23:47.137Z,6.30
2019-04-16T05:24:47.530Z,6.29
2019-04-16T05:25:47.024Z,6.29
2019-04-16T05:26:46.976Z,6.30
2019-04-16T05:27:46.975Z,6.26
2019-04-16T05:28:46.959Z,6.26
2019-04-16T05:29:48.947Z,6.26
2019-04-16T05:30:51.855Z,6.28
2019-04-16T05:31:47.978Z,6.32
2019-04-16T05:32:46.925Z,6.36
2019-04-16T05:33:46.922Z,6.38
2019-04-16T05:34:46.899Z,6.38
2019-04-16T05:35:46.885Z,6.43
2019-04-16T05:36:48.159Z,6.44
2019-04-16T05:37:48.542Z,6.47
2019-04-16T05:38:46.898Z,6.47
2019-04-16T05:39:46.863Z,6.50
2019-04-16T05:40:47.074Z,6.54
2019-04-16T05:41:47.084Z,6.54
2019-04-16T05:42:46.804Z,6.56
2019-04-16T05:43:47.143Z,6.58
2019-04-16T05:44:46.793Z,6.56
2019-04-16T05:45:46.785Z,6.58
2019-04-16T05:46:47.073Z,6.62
2019-04-16T05:47:49.059Z,6.63
2019-04-16T05:48:46.780Z,6.65
2019-04-16T05:49:46.823Z,6.68
2019-04-16T05:50:47.032Z,6.69
2019-04-16T05:51:46.733Z,6.72
2019-04-16T05:52:46.722Z,6.77
2019-04-16T05:53:46.712Z,6.80
2019-04-16T05:54:46.692Z,6.81
2019-04-16T05:55:49.390Z,6.83
2019-04-16T05:56:46.673Z,6.84
2019-04-16T05:57:47.895Z,6.90
2019-04-16T05:58:46.651Z,6.90
2019-04-16T05:59:46.635Z,6.87
2019-04-16T06:00:46.623Z,6.91
2019-04-16T06:01:46.661Z,6.99
2019-04-16T06:02:49.593Z,7.05
2019-04-16T06:03:46.597Z,7.04
2019-04-16T06:04:46.925Z,7.07
2019-04-16T06:05:46.622Z,7.09
2019-04-16T06:06:46.571Z,7.13
2019-04-16T06:07:46.621Z,7.16
2019-04-16T06:08:46.549Z,7.17
2019-04-16T06:09:46.529Z,7.22
2019-04-16T06:10:49.786Z,7.24
2019-04-16T06:11:47.862Z,7.26
2019-04-16T06:12:46.499Z,7.26
2019-04-16T06:13:46.540Z,7.29
2019-04-16T06:14:49.579Z,7.27
2019-04-16T06:15:46.469Z,7.31
2019-04-16T06:16:46.471Z,7.35
2019-04-16T06:17:46.450Z,7.32
2019-04-16T06:18:46.731Z,7.35
2019-04-16T06:19:47.422Z,7.35
2019-04-16T06:20:49.453Z,7.41
2019-04-16T06:21:47.399Z,7.44
2019-04-16T06:22:46.399Z,7.47
2019-04-16T06:23:48.236Z,7.50
2019-04-16T06:24:46.377Z,7.52
2019-04-16T06:25:46.810Z,7.55
2019-04-16T06:26:47.403Z,7.60
2019-04-16T06:27:46.350Z,7.63
2019-04-16T06:28:46.412Z,7.72
2019-04-16T06:29:47.171Z,7.72
2019-04-16T06:30:46.329Z,7.77
2019-04-16T06:31:47.158Z,7.75
2019-04-16T06:32:46.703Z,7.78
2019-04-16T06:33:46.292Z,7.79
2019-04-16T06:34:46.284Z,7.85
2019-04-16T06:35:46.265Z,7.90
2019-04-16T06:36:46.255Z,7.94
2019-04-16T06:37:47.148Z,8.00
2019-04-16T06:38:46.387Z,8.03
2019-04-16T06:39:46.908Z,8.14
2019-04-16T06:40:46.326Z,8.25
2019-04-16T06:41:48.316Z,8.36
2019-04-16T06:42:46.378Z,8.37
2019-04-16T06:43:46.386Z,8.48
2019-04-16T06:44:46.180Z,8.55
2019-04-16T06:45:46.155Z,8.60
2019-04-16T06:46:47.048Z,8.63
2019-04-16T06:47:46.137Z,8.71
2019-04-16T06:48:48.074Z,8.72
2019-04-16T06:49:48.177Z,8.78
2019-04-16T06:50:46.120Z,8.81
2019-04-16T06:51:46.097Z,8.88
2019-04-16T06:52:48.953Z,9.04
2019-04-16T06:53:46.074Z,9.10
2019-04-16T06:54:46.137Z,9.15
2019-04-16T06:55:46.444Z,9.31
2019-04-16T06:56:46.575Z,9.31
2019-04-16T06:57:46.085Z,9.32
2019-04-16T06:58:51.186Z,9.48
2019-04-16T06:59:47.022Z,9.63
2019-04-16T07:00:46.584Z,9.68
2019-04-16T07:01:46.508Z,9.75
2019-04-16T07:03:01.264Z,9.81
2019-04-16T07:03:47.001Z,9.94
2019-04-16T07:04:45.986Z,9.86
2019-04-16T07:05:46.344Z,9.99
2019-04-16T07:06:45.951Z,10.07
2019-04-16T07:07:46.975Z,10.17
2019-04-16T07:08:49.825Z,10.22
2019-04-16T07:09:46.101Z,10.28
2019-04-16T07:10:45.910Z,10.37
2019-04-16T07:11:54.180Z,10.60
2019-04-16T07:12:47.460Z,10.71
2019-04-16T07:13:48.532Z,10.88
2019-04-16T07:14:48.518Z,11.11
2019-04-16T07:15:46.042Z,11.25
2019-04-16T07:16:46.063Z,11.44
2019-04-16T07:17:45.835Z,11.57
2019-04-16T07:18:46.565Z,11.65
2019-04-16T07:19:45.830Z,11.68
2019-04-16T07:20:46.645Z,11.97
2019-04-16T07:21:48.713Z,11.97
2019-04-16T07:22:45.762Z,12.21
2019-04-16T07:23:46.903Z,12.34
2019-04-16T07:24:45.879Z,12.46
2019-04-16T07:25:46.313Z,12.45
2019-04-16T07:26:47.820Z,12.42
2019-04-16T07:27:45.724Z,12.33
2019-04-16T07:28:45.782Z,12.46
2019-04-16T07:29:46.623Z,12.56
2019-04-16T07:30:46.159Z,12.56
2019-04-16T07:31:45.767Z,12.67
2019-04-16T07:32:45.677Z,12.78
2019-04-16T07:33:45.651Z,12.89
2019-04-16T07:34:45.651Z,12.81
2019-04-16T07:35:45.630Z,12.71
2019-04-16T07:36:45.711Z,12.64
2019-04-16T07:37:45.682Z,12.79
2019-04-16T07:38:46.745Z,12.93
2019-04-16T07:39:46.589Z,13.41
2019-04-16T07:40:45.583Z,13.44
2019-04-16T07:41:45.572Z,13.40
2019-04-16T07:42:52.074Z,13.56
2019-04-16T07:43:46.561Z,13.71
2019-04-16T07:44:45.540Z,13.33
2019-04-16T07:45:45.530Z,13.40
2019-04-16T07:46:47.118Z,13.30
2019-04-16T07:47:48.316Z,13.02
2019-04-16T07:48:46.819Z,13.43
2019-04-16T07:49:46.152Z,14.09
2019-04-16T07:50:45.820Z,14.24
2019-04-16T07:51:45.759Z,14.37
2019-04-16T07:52:45.799Z,14.35
2019-04-16T07:53:47.472Z,14.50
2019-04-16T07:54:45.841Z,14.67
2019-04-16T07:55:45.613Z,15.12
2019-04-16T07:56:46.398Z,15.08
2019-04-16T07:57:45.407Z,15.05
2019-04-16T07:58:45.401Z,15.39
2019-04-16T07:59:45.419Z,15.26
2019-04-16T08:00:46.279Z,15.24
2019-04-16T08:01:47.804Z,15.31
2019-04-16T08:02:45.379Z,15.51
2019-04-16T08:03:45.918Z,15.49
2019-04-16T08:04:45.338Z,15.49
2019-04-16T08:05:45.320Z,15.41
2019-04-16T08:06:47.139Z,15.54
2019-04-16T08:07:46.243Z,15.54
2019-04-16T08:08:45.287Z,15.75
2019-04-16T08:09:45.514Z,15.99
2019-04-16T08:10:45.747Z,16.25
2019-04-16T08:11:45.568Z,16.48
2019-04-16T08:12:45.402Z,16.34
2019-04-16T08:13:45.812Z,16.23
2019-04-16T08:14:45.246Z,16.00
2019-04-16T08:15:45.207Z,16.70
2019-04-16T08:16:47.497Z,17.35
2019-04-16T08:17:45.786Z,17.46
2019-04-16T08:18:46.386Z,17.47
2019-04-16T08:19:49.150Z,18.03
2019-04-16T08:20:45.227Z,18.31
2019-04-16T08:21:45.499Z,18.65
2019-04-16T08:22:47.519Z,18.82
2019-04-16T08:23:45.134Z,18.87
2019-04-16T08:24:45.191Z,19.13
2019-04-16T08:25:45.120Z,18.52
2019-04-16T08:26:45.721Z,18.29
2019-04-16T08:27:47.229Z,18.31
2019-04-16T08:28:45.087Z,19.11
2019-04-16T08:29:46.278Z,19.32
2019-04-16T08:30:45.314Z,19.39
2019-04-16T08:31:45.067Z,20.21
2019-04-16T08:32:45.822Z,20.38
2019-04-16T08:33:45.018Z,20.50
2019-04-16T08:34:45.307Z,21.11
2019-04-16T08:35:45.038Z,21.42
2019-04-16T08:36:45.055Z,21.19
2019-04-16T08:37:49.141Z,21.34
2019-04-16T08:38:45.257Z,20.99
2019-04-16T08:39:45.957Z,20.80
2019-04-16T08:40:47.085Z,21.09
2019-04-16T08:41:46.426Z,20.59
2019-04-16T08:42:46.415Z,20.35
2019-04-16T08:43:45.739Z,21.09
2019-04-16T08:44:44.917Z,21.59
2019-04-16T08:45:45.741Z,21.39
2019-04-16T08:46:46.621Z,21.95
2019-04-16T08:47:46.078Z,22.16
2019-04-16T08:48:48.950Z,21.92
2019-04-16T08:49:46.422Z,22.22
2019-04-16T08:50:44.867Z,21.82
2019-04-16T08:51:45.783Z,22.27
2019-04-16T08:52:44.820Z,22.53
2019-04-16T08:53:46.764Z,22.69
2019-04-16T08:54:50.071Z,22.83
2019-04-16T08:55:45.812Z,22.93
2019-04-16T08:56:44.811Z,22.75
2019-04-16T08:57:46.890Z,22.84
2019-04-16T08:58:44.805Z,22.97
2019-04-16T08:59:44.766Z,23.09
2019-04-16T09:00:46.638Z,23.14
2019-04-16T09:01:44.728Z,22.86
2019-04-16T09:02:44.726Z,23.12
2019-04-16T09:03:44.719Z,23.65
2019-04-16T09:04:44.709Z,23.68
2019-04-16T09:05:45.096Z,23.39
2019-04-16T09:06:47.306Z,22.92
2019-04-16T09:07:44.676Z,22.65
2019-04-16T09:08:44.658Z,22.90
2019-04-16T09:09:44.837Z,23.53
2019-04-16T09:10:44.941Z,23.90
2019-04-16T09:11:48.479Z,24.07
2019-04-16T09:12:51.015Z,24.56
2019-04-16T09:13:48.212Z,24.39
2019-04-16T09:14:44.599Z,24.39
2019-04-16T09:15:44.598Z,24.34
2019-04-16T09:16:44.597Z,24.34
2019-04-16T09:17:44.577Z,24.24
2019-04-16T09:18:44.581Z,24.77
2019-04-16T09:19:44.551Z,24.94
2019-04-16T09:20:44.538Z,24.12
2019-04-16T09:21:44.986Z,23.97
2019-04-16T09:22:49.218Z,23.95
2019-04-16T09:23:45.562Z,24.34
2019-04-16T09:24:44.564Z,24.69
2019-04-16T09:25:45.855Z,24.80
2019-04-16T09:26:44.460Z,24.38
2019-04-16T09:27:44.449Z,24.79
2019-04-16T09:28:44.490Z,25.22
2019-04-16T09:29:44.452Z,25.17
2019-04-16T09:30:46.590Z,24.98
2019-04-16T09:31:45.440Z,24.71
2019-04-16T09:32:44.400Z,24.34
2019-04-16T09:33:44.397Z,23.55
2019-04-16T09:34:44.420Z,21.78
2019-04-16T09:35:45.137Z,19.84
2019-04-16T09:36:44.390Z,19.10
2019-04-16T09:37:44.853Z,18.74
2019-04-16T09:38:45.474Z,18.39
2019-04-16T09:39:44.400Z,18.13
2019-04-16T09:40:44.325Z,17.95
2019-04-16T09:41:44.386Z,17.20
2019-04-16T09:42:44.510Z,17.07
2019-04-16T09:43:44.290Z,16.96
2019-04-16T09:44:44.296Z,17.03
2019-04-16T09:45:44.402Z,17.14
2019-04-16T09:46:51.199Z,17.28
2019-04-16T09:47:45.416Z,17.25
2019-04-16T09:48:44.264Z,17.07
2019-04-16T09:49:44.231Z,17.03
2019-04-16T09:50:47.797Z,16.98
2019-04-16T09:51:45.575Z,16.92
2019-04-16T09:52:44.892Z,16.90
2019-04-16T09:53:45.221Z,16.80
2019-04-16T09:54:45.190Z,16.70
2019-04-16T09:55:47.644Z,16.53
2019-04-16T09:56:45.150Z,16.49
2019-04-16T09:57:44.146Z,16.56
2019-04-16T09:58:45.152Z,16.68
2019-04-16T09:59:44.751Z,17.29
2019-04-16T10:00:47.002Z,18.46
2019-04-16T10:01:44.103Z,19.66
2019-04-16T10:02:44.122Z,20.10
2019-04-16T10:03:44.092Z,20.56
2019-04-16T10:04:44.084Z,20.99
2019-04-16T10:05:44.100Z,21.72
2019-04-16T10:06:44.401Z,21.61
2019-04-16T10:07:44.370Z,22.19
2019-04-16T10:08:45.021Z,22.49
2019-04-16T10:09:44.972Z,21.88
2019-04-16T10:10:44.039Z,21.51
2019-04-16T10:11:44.021Z,22.53
2019-04-16T10:12:44.063Z,23.15
2019-04-16T10:13:43.995Z,23.90
2019-04-16T10:14:45.385Z,24.91
2019-04-16T10:15:45.209Z,25.37
2019-04-16T10:16:44.114Z,25.27
2019-04-16T10:17:44.492Z,25.17
2019-04-16T10:18:44.495Z,24.91
2019-04-16T10:19:44.100Z,24.61
2019-04-16T10:20:44.535Z,25.06
2019-04-16T10:21:45.610Z,25.47
2019-04-16T10:22:46.514Z,26.12
2019-04-16T10:23:44.008Z,26.39
2019-04-16T10:24:44.589Z,26.81
2019-04-16T10:25:43.889Z,26.32
2019-04-16T10:26:43.843Z,26.05
2019-04-16T10:27:43.834Z,25.56
2019-04-16T10:28:43.871Z,25.47
2019-04-16T10:29:43.846Z,25.02
2019-04-16T10:30:43.821Z,25.50
2019-04-16T10:31:43.797Z,25.42
2019-04-16T10:32:43.779Z,25.30
2019-04-16T10:33:43.876Z,25.94
2019-04-16T10:34:44.203Z,25.91
2019-04-16T10:35:44.285Z,25.97
2019-04-16T10:36:44.816Z,26.31
2019-04-16T10:37:43.764Z,26.50
2019-04-16T10:38:43.958Z,27.04
2019-04-16T10:39:43.791Z,27.35
2019-04-16T10:40:43.736Z,27.28
2019-04-16T10:41:43.710Z,27.51
2019-04-16T10:42:43.678Z,26.64
2019-04-16T10:43:45.012Z,26.64
2019-04-16T10:44:43.673Z,26.98
2019-04-16T10:45:43.757Z,26.84
2019-04-16T10:46:43.898Z,26.96
2019-04-16T10:47:43.747Z,27.28
2019-04-16T10:48:43.613Z,27.95
2019-04-16T10:49:43.661Z,27.89
2019-04-16T10:50:43.602Z,28.09
2019-04-16T10:51:43.611Z,27.32
2019-04-16T10:52:43.776Z,27.62
2019-04-16T10:53:44.480Z,27.76
2019-04-16T10:54:43.757Z,27.67
2019-04-16T10:55:44.450Z,26.89
2019-04-16T10:56:44.271Z,25.49
2019-04-16T10:57:43.853Z,25.59
2019-04-16T10:58:43.775Z,25.10
2019-04-16T10:59:43.555Z,25.49
2019-04-16T11:00:43.509Z,25.89
2019-04-16T11:01:43.585Z,26.40
2019-04-16T11:02:43.528Z,26.94
2019-04-16T11:03:43.610Z,25.74
2019-04-16T11:04:44.022Z,25.72
2019-04-16T11:05:43.527Z,25.57
2019-04-16T11:06:43.454Z,26.20
2019-04-16T11:07:43.448Z,26.65
2019-04-16T11:08:43.445Z,26.22
2019-04-16T11:09:43.427Z,26.62
2019-04-16T11:10:43.991Z,27.06
2019-04-16T11:11:43.515Z,26.68
2019-04-16T11:12:43.393Z,26.73
2019-04-16T11:13:43.369Z,27.38
2019-04-16T11:14:43.405Z,27.79
2019-04-16T11:15:44.315Z,27.80
2019-04-16T11:16:43.359Z,27.57
2019-04-16T11:17:43.418Z,26.68
2019-04-16T11:18:44.118Z,27.11
2019-04-16T11:19:43.340Z,27.11
2019-04-16T11:20:43.332Z,26.95
2019-04-16T11:21:43.384Z,26.65
2019-04-16T11:22:43.303Z,26.62
2019-04-16T11:23:44.133Z,26.74
2019-04-16T11:24:43.982Z,26.99
2019-04-16T11:25:46.790Z,27.46
2019-04-16T11:26:44.538Z,27.42
2019-04-16T11:27:43.735Z,27.70
2019-04-16T11:28:43.637Z,27.73
2019-04-16T11:29:43.461Z,28.22
2019-04-16T11:30:43.206Z,28.13
2019-04-16T11:31:43.223Z,28.54
2019-04-16T11:32:43.168Z,28.46
2019-04-16T11:33:43.203Z,28.85
2019-04-16T11:34:43.655Z,29.13
2019-04-16T11:35:44.633Z,28.44
2019-04-16T11:36:43.213Z,27.57
2019-04-16T11:37:44.506Z,27.16
2019-04-16T11:38:43.150Z,27.46
2019-04-16T11:39:43.772Z,28.23
2019-04-16T11:40:43.257Z,28.65
2019-04-16T11:41:43.504Z,28.90
2019-04-16T11:42:43.730Z,28.04
2019-04-16T11:43:43.107Z,27.28
2019-04-16T11:44:43.748Z,26.79
2019-04-16T11:45:43.072Z,27.21
2019-04-16T11:46:43.034Z,28.48
2019-04-16T11:47:44.134Z,28.38
2019-04-16T11:48:44.505Z,28.80
2019-04-16T11:49:43.200Z,28.58
2019-04-16T11:50:43.213Z,27.59
2019-04-16T11:51:43.172Z,28.21
2019-04-16T11:52:43.110Z,28.46
2019-04-16T11:53:45.219Z,27.95
2019-04-16T11:54:46.778Z,27.99
2019-04-16T11:55:43.599Z,27.01
2019-04-16T11:56:43.038Z,27.17
2019-04-16T11:57:42.953Z,26.28
2019-04-16T11:58:43.076Z,26.55
2019-04-16T11:59:43.998Z,26.96
2019-04-16T12:00:42.899Z,27.53
2019-04-16T12:01:42.928Z,27.54
2019-04-16T12:02:43.205Z,27.54
2019-04-16T12:03:42.888Z,27.23
2019-04-16T12:04:42.875Z,27.24
2019-04-16T12:05:43.157Z,27.89
2019-04-16T12:06:42.879Z,28.17
2019-04-16T12:07:47.040Z,28.19
2019-04-16T12:08:42.863Z,28.53
2019-04-16T12:09:44.185Z,28.95
2019-04-16T12:10:42.822Z,29.37
2019-04-16T12:11:42.831Z,29.28
2019-04-16T12:12:42.841Z,28.58
2019-04-16T12:13:42.799Z,28.58
2019-04-16T12:14:43.678Z,28.75
2019-04-16T12:15:42.776Z,27.51
2019-04-16T12:16:42.765Z,26.81
2019-04-16T12:17:42.840Z,26.40
2019-04-16T12:18:43.718Z,27.11
2019-04-16T12:19:44.958Z,28.01
2019-04-16T12:20:42.743Z,28.22
2019-04-16T12:22:57.747Z,28.93
2019-04-16T12:23:57.620Z,29.29
2019-04-16T12:24:58.009Z,29.04
2019-04-16T12:25:57.589Z,29.43
2019-04-16T12:26:57.589Z,29.55
2019-04-16T12:27:57.780Z,29.90
2019-04-16T12:28:57.668Z,30.45
2019-04-16T12:29:57.534Z,30.84
2019-04-16T12:30:58.131Z,30.90
2019-04-16T12:31:57.722Z,30.27
2019-04-16T12:32:57.773Z,30.24
2019-04-16T12:33:58.457Z,30.08
2019-04-16T12:34:58.099Z,29.90
2019-04-16T12:35:57.496Z,29.29
2019-04-16T12:36:58.197Z,28.88
2019-04-16T12:37:57.446Z,28.28
2019-04-16T12:38:57.476Z,28.84
2019-04-16T12:39:59.559Z,28.80
2019-04-16T12:40:57.702Z,28.70
2019-04-16T12:42:00.011Z,28.77
2019-04-16T12:42:57.807Z,29.68
2019-04-16T12:43:58.386Z,30.65
2019-04-16T12:44:58.430Z,29.93
2019-04-16T12:45:57.901Z,29.57
2019-04-16T12:46:57.451Z,30.19
2019-04-16T12:47:59.055Z,29.65
2019-04-16T12:48:57.365Z,29.90
2019-04-16T12:49:57.349Z,29.84
2019-04-16T12:50:57.323Z,30.31
2019-04-16T12:51:57.588Z,30.49
2019-04-16T12:52:57.529Z,30.53
2019-04-16T12:53:57.314Z,30.71
2019-04-16T12:54:59.261Z,30.50
2019-04-16T12:55:57.324Z,30.49
2019-04-16T12:56:58.018Z,29.74
2019-04-16T12:57:58.999Z,30.09
2019-04-16T12:58:57.289Z,30.43
2019-04-16T12:59:57.222Z,30.65
2019-04-16T13:00:59.770Z,30.75
2019-04-16T13:01:59.814Z,30.71
2019-04-16T13:02:59.719Z,29.66
2019-04-16T13:03:57.229Z,29.75
2019-04-16T13:04:57.246Z,29.66
2019-04-16T13:05:57.333Z,29.77
2019-04-16T13:06:58.384Z,30.19
2019-04-16T13:07:58.032Z,29.38
2019-04-16T13:08:57.124Z,29.16